createdAt,value
2023-03-31T00:00:53.062Z,62.32
2023-03-31T00:03:24.065Z,62.55
2023-03-31T00:05:58.396Z,63.38
2023-03-31T00:08:30.559Z,64.70
2023-03-31T00:11:00.228Z,65.88
2023-03-31T00:13:28.197Z,65.82
2023-03-31T00:15:58.445Z,67.33
2023-03-31T00:18:27.741Z,68.83
2023-03-31T00:20:58.516Z,68.81
2023-03-31T00:23:29.142Z,67.76
2023-03-31T00:25:57.121Z,65.28
2023-03-31T00:28:25.208Z,68.02
2023-03-31T00:30:53.606Z,67.50
2023-03-31T00:33:21.624Z,68.77
2023-03-31T00:35:53.805Z,67.73
2023-03-31T00:38:22.090Z,67.83
2023-03-31T00:40:52.614Z,68.05
2023-03-31T00:43:32.439Z,69.85
2023-03-31T00:46:09.065Z,71.96
2023-03-31T00:48:38.413Z,71.36
2023-03-31T00:51:07.834Z,73.34
2023-03-31T00:53:35.906Z,73.64
2023-03-31T00:56:08.052Z,73.33
2023-03-31T00:58:43.639Z,75.36
2023-03-31T01:01:14.454Z,73.08
2023-03-31T01:03:46.944Z,73.29
2023-03-31T01:06:16.932Z,74.15
2023-03-31T01:08:44.888Z,73.93
2023-03-31T01:11:13.985Z,74.23
2023-03-31T01:13:41.946Z,75.51
2023-03-31T01:16:09.918Z,75.53
2023-03-31T01:18:37.896Z,76.80
2023-03-31T01:21:19.832Z,75.36
2023-03-31T01:24:32.054Z,76.70
2023-03-31T01:27:08.290Z,79.60
2023-03-31T01:29:53.137Z,79.94
2023-03-31T01:32:51.763Z,80.81
2023-03-31T01:35:44.976Z,80.90
2023-03-31T01:38:42.789Z,80.06
2023-03-31T01:41:22.777Z,79.00
2023-03-31T01:43:53.648Z,78.07
2023-03-31T01:46:24.674Z,77.76
2023-03-31T01:48:56.936Z,76.73
2023-03-31T01:51:28.240Z,76.74
2023-03-31T01:53:58.027Z,77.25
2023-03-31T01:56:29.255Z,77.84
2023-03-31T01:58:59.283Z,77.20
2023-03-31T02:01:31.117Z,77.28
2023-03-31T02:04:00.414Z,75.80
2023-03-31T02:06:30.739Z,72.72
2023-03-31T02:08:59.563Z,72.49
2023-03-31T02:11:29.607Z,71.30
2023-03-31T02:13:57.527Z,69.86
2023-03-31T02:16:26.637Z,69.02
2023-03-31T02:19:02.193Z,64.59
2023-03-31T02:21:30.535Z,65.02
2023-03-31T02:23:58.500Z,65.06
2023-03-31T02:26:28.973Z,64.00
2023-03-31T02:28:56.915Z,62.93
2023-03-31T02:31:28.778Z,61.80
2023-03-31T02:33:56.903Z,64.43
2023-03-31T02:36:24.882Z,63.66
2023-03-31T02:38:54.302Z,64.30
2023-03-31T02:41:22.238Z,64.98
2023-03-31T02:43:51.566Z,65.14
2023-03-31T02:46:19.610Z,69.74
2023-03-31T02:48:49.219Z,76.18
2023-03-31T02:51:47.070Z,74.14
2023-03-31T02:54:35.157Z,74.39
2023-03-31T02:57:34.420Z,74.41
2023-03-31T03:00:09.611Z,74.35
2023-03-31T03:02:41.468Z,74.66
2023-03-31T03:05:22.920Z,76.92
2023-03-31T03:07:55.970Z,76.92
2023-03-31T03:10:29.533Z,76.46
2023-03-31T03:12:58.770Z,77.19
2023-03-31T03:15:30.805Z,76.79
2023-03-31T03:17:58.797Z,79.06
2023-03-31T03:20:26.922Z,77.72
2023-03-31T03:22:54.849Z,77.92
2023-03-31T03:25:24.440Z,78.48
2023-03-31T03:27:54.009Z,78.14
2023-03-31T03:30:21.974Z,79.32
2023-03-31T03:32:51.377Z,78.69
2023-03-31T03:35:19.306Z,77.97
2023-03-31T03:37:47.211Z,77.49
2023-03-31T03:40:15.461Z,76.67
2023-03-31T03:42:43.397Z,75.10
2023-03-31T03:45:11.758Z,74.67
2023-03-31T03:47:39.755Z,74.89
2023-03-31T03:50:12.557Z,75.18
2023-03-31T03:52:42.051Z,75.90
2023-03-31T03:55:12.230Z,75.19
2023-03-31T03:57:40.264Z,76.19
2023-03-31T04:00:12.479Z,76.93
2023-03-31T04:02:40.969Z,78.72
2023-03-31T04:05:11.056Z,79.82
2023-03-31T04:07:39.020Z,82.63
2023-03-31T04:10:08.194Z,88.10
2023-03-31T04:12:36.185Z,90.42
2023-03-31T04:15:04.351Z,93.44
2023-03-31T04:17:34.919Z,83.03
2023-03-31T04:20:06.035Z,75.24
2023-03-31T04:22:40.701Z,81.66
2023-03-31T04:25:14.750Z,87.08
2023-03-31T04:27:46.731Z,79.21
2023-03-31T04:30:22.803Z,79.43
2023-03-31T04:32:51.967Z,80.11
2023-03-31T04:35:20.713Z,75.40
2023-03-31T04:37:50.416Z,71.90
2023-03-31T04:40:18.745Z,73.37
2023-03-31T04:42:46.667Z,68.88
2023-03-31T04:45:14.614Z,68.73
2023-03-31T04:47:43.522Z,69.06
2023-03-31T04:50:15.380Z,68.43
2023-03-31T04:52:44.806Z,67.62
2023-03-31T04:55:14.092Z,67.11
2023-03-31T04:57:42.166Z,70.08
2023-03-31T05:00:11.545Z,70.94
2023-03-31T05:02:39.571Z,74.22
2023-03-31T05:05:08.182Z,78.51
2023-03-31T05:07:36.163Z,85.38
2023-03-31T05:10:04.230Z,91.86
2023-03-31T05:12:36.648Z,90.23
2023-03-31T05:15:04.745Z,90.46
2023-03-31T05:17:33.272Z,92.67
2023-03-31T05:20:01.247Z,87.80
2023-03-31T05:22:29.184Z,83.73
2023-03-31T05:24:57.154Z,85.55
2023-03-31T05:27:25.092Z,82.90
2023-03-31T05:29:54.429Z,81.26
2023-03-31T05:32:22.371Z,79.08
2023-03-31T05:34:52.613Z,79.35
2023-03-31T05:37:21.132Z,82.59
2023-03-31T05:39:49.128Z,81.86
2023-03-31T05:42:17.093Z,86.18
2023-03-31T05:44:45.048Z,90.57
2023-03-31T05:47:14.382Z,100.00
2023-03-31T05:49:42.279Z,100.00
2023-03-31T05:52:10.313Z,100.00
2023-03-31T05:54:38.273Z,100.00
2023-03-31T05:57:06.247Z,100.00
2023-03-31T05:59:35.669Z,100.00
2023-03-31T06:02:03.725Z,100.00
2023-03-31T06:04:33.553Z,100.00
2023-03-31T06:07:01.646Z,100.00
2023-03-31T06:09:29.692Z,100.00
2023-03-31T06:11:57.639Z,100.00
2023-03-31T06:14:25.759Z,100.00
2023-03-31T06:19:22.007Z,100.00
2023-03-31T06:21:51.477Z,100.00
2023-03-31T06:24:19.412Z,100.00
2023-03-31T06:26:47.347Z,100.00
2023-03-31T06:29:15.472Z,100.00
2023-03-31T06:31:43.438Z,100.00
2023-03-31T06:34:11.365Z,100.00
2023-03-31T06:36:39.299Z,100.00
2023-03-31T06:39:08.870Z,100.00
2023-03-31T06:41:37.442Z,100.00
2023-03-31T06:44:05.421Z,100.00
2023-03-31T06:46:33.396Z,100.00
2023-03-31T06:49:01.383Z,100.00
2023-03-31T06:51:30.657Z,100.00
2023-03-31T06:54:00.461Z,100.00
2023-03-31T06:56:29.765Z,100.00
2023-03-31T06:58:57.737Z,100.00
2023-03-31T07:01:25.719Z,100.00
2023-03-31T07:03:53.776Z,100.00
2023-03-31T07:06:21.674Z,100.00
2023-03-31T07:08:49.655Z,100.00
2023-03-31T07:11:21.051Z,100.00
2023-03-31T07:13:50.610Z,100.00
2023-03-31T07:16:18.586Z,100.00
2023-03-31T07:18:46.540Z,100.00
2023-03-31T07:21:14.670Z,100.00
2023-03-31T07:23:42.776Z,100.00
2023-03-31T07:26:11.458Z,100.00
2023-03-31T07:28:39.414Z,100.00
2023-03-31T07:31:13.605Z,100.00
2023-03-31T07:33:41.637Z,100.00
2023-03-31T07:36:13.443Z,100.00
2023-03-31T07:38:42.382Z,100.00
2023-03-31T07:41:12.158Z,100.00
2023-03-31T07:43:40.261Z,100.00
2023-03-31T07:46:08.734Z,100.00
2023-03-31T07:48:38.256Z,100.00
2023-03-31T07:51:06.762Z,100.00
2023-03-31T07:53:34.859Z,100.00
2023-03-31T07:56:02.885Z,100.00
2023-03-31T07:58:30.868Z,100.00
2023-03-31T08:00:58.880Z,100.00
2023-03-31T08:03:26.972Z,100.00
2023-03-31T08:05:56.324Z,100.00
2023-03-31T08:08:24.246Z,100.00
2023-03-31T08:10:52.200Z,100.00
2023-03-31T08:13:21.276Z,100.00
2023-03-31T08:15:49.233Z,100.00
2023-03-31T08:18:17.167Z,100.00
2023-03-31T08:20:46.623Z,100.00
2023-03-31T08:23:17.101Z,100.00
2023-03-31T08:25:45.082Z,100.00
2023-03-31T08:28:14.107Z,100.00
2023-03-31T08:30:42.087Z,100.00
2023-03-31T08:33:12.341Z,100.00
2023-03-31T08:35:40.418Z,100.00
2023-03-31T08:38:08.422Z,100.00
2023-03-31T08:40:37.754Z,100.00
2023-03-31T08:43:07.359Z,100.00
2023-03-31T08:45:36.247Z,100.00
2023-03-31T08:48:07.362Z,100.00
2023-03-31T08:50:36.865Z,100.00
2023-03-31T08:53:06.300Z,100.00
2023-03-31T08:55:49.772Z,100.00
2023-03-31T08:58:23.285Z,100.00
2023-03-31T09:00:53.530Z,100.00
2023-03-31T09:03:25.739Z,100.00
2023-03-31T09:06:00.820Z,100.00
2023-03-31T09:08:38.353Z,100.00
2023-03-31T09:11:15.649Z,100.00
2023-03-31T09:14:04.341Z,100.00
2023-03-31T09:16:34.449Z,100.00
2023-03-31T09:19:03.002Z,100.00
2023-03-31T09:21:33.088Z,100.00
2023-03-31T09:24:04.464Z,100.00
2023-03-31T09:26:37.485Z,100.00
2023-03-31T09:29:07.274Z,88.41
2023-03-31T09:31:35.566Z,82.11
2023-03-31T09:34:03.572Z,79.92
2023-03-31T09:36:31.563Z,77.57
2023-03-31T09:38:59.497Z,75.61
2023-03-31T09:41:27.550Z,69.85
2023-03-31T09:43:56.859Z,64.98
2023-03-31T09:46:30.312Z,64.10
2023-03-31T09:49:01.359Z,62.61
2023-03-31T09:51:31.413Z,62.96
2023-03-31T09:54:02.506Z,61.19
2023-03-31T09:56:34.702Z,57.33
2023-03-31T09:59:04.398Z,53.95
2023-03-31T10:01:32.614Z,55.57
2023-03-31T10:04:00.639Z,57.89
2023-03-31T10:06:28.619Z,55.64
2023-03-31T10:08:57.710Z,59.34
2023-03-31T10:11:27.241Z,61.20
2023-03-31T10:13:58.949Z,63.50
2023-03-31T10:16:32.114Z,64.99
2023-03-31T10:19:13.092Z,66.58
2023-03-31T10:21:41.161Z,70.19
2023-03-31T10:24:12.118Z,71.46
2023-03-31T10:26:40.906Z,71.65
2023-03-31T10:29:11.997Z,69.88
2023-03-31T10:31:41.437Z,70.55
2023-03-31T10:34:11.674Z,72.33
2023-03-31T10:36:39.721Z,73.43
2023-03-31T10:39:07.783Z,74.42
2023-03-31T10:41:35.827Z,76.56
2023-03-31T10:44:04.741Z,74.53
2023-03-31T10:46:44.331Z,75.83
2023-03-31T10:49:17.320Z,75.75
2023-03-31T10:51:50.255Z,77.26
2023-03-31T10:54:18.599Z,75.98
2023-03-31T10:56:48.951Z,76.75
2023-03-31T10:59:38.556Z,77.00
2023-03-31T11:02:17.820Z,76.36
2023-03-31T11:04:49.072Z,75.54
2023-03-31T11:07:29.592Z,75.63
2023-03-31T11:10:04.678Z,72.99
2023-03-31T11:12:34.073Z,73.91
2023-03-31T11:15:08.621Z,70.40
2023-03-31T11:17:45.447Z,71.92
2023-03-31T11:20:17.777Z,68.58
2023-03-31T11:22:48.431Z,66.41
2023-03-31T11:25:35.280Z,63.73
2023-03-31T11:28:35.196Z,60.93
2023-03-31T11:31:09.894Z,58.14
2023-03-31T11:34:02.089Z,56.11
2023-03-31T11:36:41.620Z,57.25
2023-03-31T11:39:18.514Z,56.98
2023-03-31T11:41:48.200Z,57.04
2023-03-31T11:44:17.188Z,56.63
2023-03-31T11:46:46.300Z,58.48
2023-03-31T11:49:19.288Z,58.35
2023-03-31T11:51:50.430Z,57.51
2023-03-31T11:54:19.707Z,57.42
2023-03-31T11:56:47.725Z,57.64
2023-03-31T11:59:16.595Z,57.03
2023-03-31T12:01:46.354Z,56.26
2023-03-31T12:04:23.680Z,56.36
2023-03-31T12:06:51.683Z,55.79
2023-03-31T12:09:23.310Z,56.60
2023-03-31T12:11:53.662Z,57.17
2023-03-31T12:14:28.673Z,57.00
2023-03-31T12:16:58.121Z,55.40
2023-03-31T12:19:29.238Z,53.77
2023-03-31T12:22:00.131Z,50.62
2023-03-31T12:24:28.115Z,45.12
2023-03-31T12:27:02.322Z,41.59
2023-03-31T12:29:32.144Z,41.55
2023-03-31T12:32:01.046Z,41.05
2023-03-31T12:34:30.784Z,39.27
2023-03-31T12:37:24.074Z,41.19
2023-03-31T12:39:55.909Z,42.71
2023-03-31T12:42:54.173Z,42.22
2023-03-31T12:45:27.032Z,43.11
2023-03-31T12:48:05.647Z,44.06
2023-03-31T12:50:54.815Z,45.37
2023-03-31T12:53:26.312Z,46.43
2023-03-31T12:55:57.813Z,48.26
2023-03-31T12:58:44.428Z,46.47
2023-03-31T13:01:15.451Z,45.95
2023-03-31T13:03:50.709Z,44.82
2023-03-31T13:06:50.199Z,45.25
2023-03-31T13:09:43.694Z,45.74
2023-03-31T13:12:15.952Z,44.57
2023-03-31T13:14:44.695Z,44.80
2023-03-31T13:17:14.242Z,45.20
2023-03-31T13:19:42.588Z,45.97
2023-03-31T13:22:35.058Z,46.07
2023-03-31T13:25:39.942Z,45.56
2023-03-31T13:28:26.843Z,45.24
2023-03-31T13:30:56.835Z,45.18
2023-03-31T13:33:36.640Z,44.98
2023-03-31T13:36:36.779Z,44.33
2023-03-31T13:39:14.839Z,44.48
2023-03-31T13:41:49.624Z,44.80
2023-03-31T13:44:38.858Z,45.74
2023-03-31T13:47:34.453Z,44.41
2023-03-31T13:50:14.174Z,44.54
2023-03-31T13:52:45.956Z,44.49
2023-03-31T13:55:33.910Z,44.78
2023-03-31T13:58:25.554Z,45.41
2023-03-31T14:01:23.861Z,44.39
2023-03-31T14:03:58.122Z,43.71
2023-03-31T14:06:27.591Z,44.07
2023-03-31T14:08:56.727Z,44.25
2023-03-31T14:11:26.768Z,44.07
2023-03-31T14:14:13.378Z,43.54
2023-03-31T14:16:42.054Z,43.45
2023-03-31T14:19:34.774Z,43.31
2023-03-31T14:22:05.509Z,43.54
2023-03-31T14:24:35.105Z,43.99
2023-03-31T14:27:06.941Z,43.70
2023-03-31T14:29:37.566Z,44.69
2023-03-31T14:32:08.503Z,45.71
2023-03-31T14:34:46.218Z,44.99
2023-03-31T14:37:16.188Z,44.65
2023-03-31T14:39:45.462Z,46.24
2023-03-31T14:42:15.358Z,46.63
2023-03-31T14:44:46.922Z,46.14
2023-03-31T14:47:16.393Z,45.11
2023-03-31T14:49:44.371Z,45.74
2023-03-31T14:52:17.208Z,45.10
2023-03-31T14:54:47.586Z,45.58
2023-03-31T14:57:19.421Z,44.98
2023-03-31T14:59:47.777Z,45.45
2023-03-31T15:02:17.330Z,45.84
2023-03-31T15:04:48.197Z,46.29
2023-03-31T15:07:16.628Z,48.38
2023-03-31T15:09:46.274Z,47.28
2023-03-31T15:12:15.791Z,47.57
2023-03-31T15:14:47.649Z,48.29
2023-03-31T15:17:21.405Z,48.34
2023-03-31T15:19:55.023Z,48.78
2023-03-31T15:22:24.064Z,49.91
2023-03-31T15:24:52.468Z,50.17
2023-03-31T15:30:16.744Z,51.26
2023-03-31T15:32:45.021Z,52.14
2023-03-31T15:35:22.326Z,52.14
2023-03-31T15:37:52.137Z,52.56
2023-03-31T15:40:21.154Z,53.16
2023-03-31T15:43:01.693Z,53.98
2023-03-31T15:45:46.335Z,54.35
2023-03-31T15:48:20.799Z,54.72
2023-03-31T15:50:48.986Z,55.45
2023-03-31T15:53:30.127Z,56.43
2023-03-31T15:55:59.954Z,56.24
2023-03-31T15:59:04.399Z,57.12
2023-03-31T16:01:34.516Z,57.83
2023-03-31T16:04:03.072Z,58.25
2023-03-31T16:06:36.087Z,58.47
2023-03-31T16:09:06.117Z,58.80
2023-03-31T16:11:37.610Z,59.68
2023-03-31T16:14:08.956Z,60.28
2023-03-31T16:16:38.445Z,61.27
2023-03-31T16:19:10.037Z,63.01
2023-03-31T16:21:39.403Z,63.57
2023-03-31T16:24:07.685Z,64.36
2023-03-31T16:26:35.725Z,64.95
2023-03-31T16:29:04.022Z,65.87
2023-03-31T16:31:35.303Z,67.54
2023-03-31T16:34:05.443Z,68.61
2023-03-31T16:36:33.576Z,69.05
2023-03-31T16:39:05.079Z,70.91
2023-03-31T16:41:33.203Z,72.02
2023-03-31T16:44:01.242Z,73.26
2023-03-31T16:46:29.251Z,74.32
2023-03-31T16:48:57.229Z,75.75
2023-03-31T16:51:26.607Z,77.32
2023-03-31T16:53:56.159Z,79.81
2023-03-31T16:56:27.260Z,80.25
2023-03-31T16:58:55.259Z,81.07
2023-03-31T17:01:23.289Z,81.53
2023-03-31T17:03:51.388Z,82.82
2023-03-31T17:06:19.529Z,84.08
2023-03-31T17:08:48.833Z,84.97
2023-03-31T17:11:16.969Z,86.37
2023-03-31T17:13:44.975Z,88.40
2023-03-31T17:16:22.089Z,90.05
2023-03-31T17:18:54.668Z,91.42
2023-03-31T17:21:23.784Z,92.29
2023-03-31T17:23:53.361Z,93.85
2023-03-31T17:26:22.577Z,95.16
2023-03-31T17:28:50.637Z,96.01
2023-03-31T17:31:19.680Z,96.61
2023-03-31T17:33:47.775Z,97.18
2023-03-31T17:36:16.017Z,97.75
2023-03-31T17:38:45.095Z,98.27
2023-03-31T17:41:15.403Z,99.23
2023-03-31T17:43:45.620Z,99.90
2023-03-31T17:46:14.027Z,100.00
2023-03-31T17:48:42.108Z,100.00
2023-03-31T17:51:10.991Z,100.00
2023-03-31T17:53:39.745Z,100.00
2023-03-31T17:56:07.885Z,100.00
2023-03-31T17:58:37.237Z,100.00
2023-03-31T18:01:05.893Z,100.00
2023-03-31T18:03:33.896Z,100.00
2023-03-31T18:06:06.613Z,100.00
2023-03-31T18:08:34.679Z,100.00
2023-03-31T18:11:03.022Z,100.00
2023-03-31T18:13:30.989Z,100.00
2023-03-31T18:16:00.377Z,100.00
2023-03-31T18:18:29.084Z,100.00
2023-03-31T18:20:57.203Z,100.00
2023-03-31T18:23:25.293Z,100.00
2023-03-31T18:25:53.306Z,100.00
2023-03-31T18:28:21.712Z,100.00
2023-03-31T18:30:49.712Z,100.00
2023-03-31T18:33:19.143Z,100.00
2023-03-31T18:35:48.380Z,100.00
2023-03-31T18:38:16.640Z,100.00
2023-03-31T18:40:49.126Z,100.00
2023-03-31T18:43:18.309Z,100.00
2023-03-31T18:45:49.474Z,100.00
2023-03-31T18:48:19.274Z,100.00
2023-03-31T18:50:47.394Z,100.00
2023-03-31T18:53:16.070Z,100.00
2023-03-31T18:55:44.038Z,100.00
2023-03-31T18:58:12.304Z,100.00
2023-03-31T19:00:40.759Z,100.00
2023-03-31T19:03:08.983Z,100.00
2023-03-31T19:05:38.770Z,100.00
2023-03-31T19:08:06.790Z,100.00
2023-03-31T19:10:34.760Z,100.00
2023-03-31T19:13:02.749Z,100.00
2023-03-31T19:15:31.066Z,100.00
2023-03-31T19:17:59.256Z,100.00
2023-03-31T19:20:27.363Z,100.00
2023-03-31T19:22:57.046Z,100.00
2023-03-31T19:25:25.232Z,100.00
2023-03-31T19:27:53.151Z,100.00
2023-03-31T19:30:22.286Z,100.00
2023-03-31T19:32:50.464Z,100.00
2023-03-31T19:35:18.845Z,100.00
2023-03-31T19:37:46.889Z,100.00
2023-03-31T19:40:16.217Z,100.00
2023-03-31T19:42:44.542Z,100.00
2023-03-31T19:45:12.660Z,100.00
2023-03-31T19:47:40.708Z,100.00
2023-03-31T19:50:09.604Z,100.00
2023-03-31T19:52:37.617Z,100.00
2023-03-31T19:55:06.282Z,100.00
2023-03-31T19:57:35.690Z,100.00
2023-03-31T20:00:05.319Z,100.00
2023-03-31T20:02:33.672Z,100.00
2023-03-31T20:05:01.828Z,100.00
2023-03-31T20:07:30.152Z,100.00
2023-03-31T20:09:58.181Z,100.00
2023-03-31T20:12:26.180Z,100.00
2023-03-31T20:14:55.547Z,100.00
2023-03-31T20:17:23.527Z,100.00
2023-03-31T20:19:51.481Z,100.00
2023-03-31T20:22:19.489Z,100.00
2023-03-31T20:24:47.572Z,100.00
2023-03-31T20:27:15.947Z,100.00
2023-03-31T20:29:44.042Z,100.00
2023-03-31T20:32:15.560Z,100.00
2023-03-31T20:34:43.532Z,100.00
2023-03-31T20:37:12.298Z,100.00
2023-03-31T20:39:40.204Z,100.00
2023-03-31T20:42:08.153Z,100.00
2023-03-31T20:44:36.435Z,100.00
2023-03-31T20:47:04.386Z,100.00
2023-03-31T20:49:33.746Z,100.00
2023-03-31T20:52:01.656Z,100.00
2023-03-31T20:54:29.626Z,100.00
2023-03-31T20:56:57.605Z,100.00
2023-03-31T20:59:25.626Z,100.00
2023-03-31T21:01:53.558Z,100.00
2023-03-31T21:04:21.943Z,100.00
2023-03-31T21:06:51.664Z,100.00
2023-03-31T21:09:19.660Z,100.00
2023-03-31T21:11:47.630Z,100.00
2023-03-31T21:14:15.970Z,100.00
2023-03-31T21:16:43.964Z,100.00
2023-03-31T21:19:12.057Z,100.00
2023-03-31T21:21:41.449Z,100.00
2023-03-31T21:24:12.648Z,100.00
2023-03-31T21:26:40.849Z,100.00
2023-03-31T21:29:08.854Z,98.77
2023-03-31T21:31:36.839Z,98.34
2023-03-31T21:34:04.875Z,98.60
2023-03-31T21:36:32.868Z,97.68
2023-03-31T21:39:00.984Z,98.20
2023-03-31T21:41:31.252Z,99.42
2023-03-31T21:44:02.288Z,99.72
2023-03-31T21:46:31.878Z,99.39
2023-03-31T21:48:59.932Z,98.57
2023-03-31T21:51:28.696Z,100.00
2023-03-31T21:53:57.023Z,98.85
2023-03-31T21:56:25.431Z,99.13
2023-03-31T21:58:54.719Z,100.00
2023-03-31T22:01:23.572Z,100.00
2023-03-31T22:03:52.013Z,100.00
2023-03-31T22:06:20.070Z,100.00
2023-03-31T22:08:48.001Z,100.00
2023-03-31T22:11:16.161Z,100.00
2023-03-31T22:13:44.169Z,100.00
2023-03-31T22:16:18.013Z,100.00
2023-03-31T22:18:47.092Z,100.00
2023-03-31T22:21:17.159Z,100.00
2023-03-31T22:23:45.155Z,100.00
2023-03-31T22:26:13.133Z,100.00
2023-03-31T22:28:41.267Z,100.00
2023-03-31T22:31:09.406Z,100.00
2023-03-31T22:33:38.938Z,100.00
2023-03-31T22:36:07.860Z,100.00
2023-03-31T22:38:35.849Z,100.00
2023-03-31T22:41:03.850Z,100.00
2023-03-31T22:43:31.804Z,100.00
2023-03-31T22:46:03.746Z,100.00
2023-03-31T22:48:31.683Z,100.00
2023-03-31T22:51:02.892Z,100.00
2023-03-31T22:53:30.852Z,100.00
2023-03-31T22:55:59.275Z,100.00
2023-03-31T22:58:27.260Z,100.00
2023-03-31T23:00:58.394Z,100.00
2023-03-31T23:03:27.104Z,100.00
2023-03-31T23:05:55.069Z,100.00
2023-03-31T23:08:24.426Z,100.00
2023-03-31T23:10:56.637Z,100.00
2023-03-31T23:13:24.614Z,100.00
2023-03-31T23:15:52.548Z,100.00
2023-03-31T23:18:20.583Z,100.00
2023-03-31T23:20:48.562Z,100.00
2023-03-31T23:23:17.194Z,100.00
2023-03-31T23:25:46.627Z,100.00
2023-03-31T23:28:14.595Z,100.00
2023-03-31T23:30:42.579Z,100.00
2023-03-31T23:33:10.540Z,100.00
2023-03-31T23:35:38.480Z,100.00
2023-03-31T23:38:06.434Z,100.00
2023-03-31T23:40:34.384Z,100.00
2023-03-31T23:43:03.732Z,100.00
2023-03-31T23:45:31.916Z,100.00
2023-03-31T23:48:00.040Z,100.00
2023-03-31T23:50:28.629Z,100.00
2023-03-31T23:52:59.354Z,100.00
2023-03-31T23:55:27.452Z,100.00
2023-03-31T23:57:55.422Z,100.00
